createdAt,value
2019-03-16T00:04:07.767Z,1004.13
2019-03-16T00:09:07.974Z,1004.24
2019-03-16T00:14:07.357Z,1004.43
2019-03-16T00:19:07.262Z,1004.36
2019-03-16T00:23:06.735Z,1004.68
2019-03-16T00:28:06.125Z,1004.65
2019-03-16T00:33:06.451Z,1004.65
2019-03-16T00:38:06.958Z,1004.69
2019-03-16T00:43:06.765Z,1004.84
2019-03-16T00:48:06.662Z,1004.84
2019-03-16T00:53:06.186Z,1004.86
2019-03-16T00:58:06.636Z,1004.86
2019-03-16T01:03:07.217Z,1004.88
2019-03-16T01:07:06.661Z,1004.86
2019-03-16T01:12:06.701Z,1004.91
2019-03-16T01:17:06.689Z,1004.88
2019-03-16T01:22:07.148Z,1004.87
2019-03-16T01:27:06.970Z,1004.83
2019-03-16T01:32:07.131Z,1004.92
2019-03-16T01:36:06.378Z,1005.01
2019-03-16T01:41:06.355Z,1005.11
2019-03-16T01:46:06.845Z,1005.06
2019-03-16T01:51:06.348Z,1005.22
2019-03-16T01:56:06.759Z,1005.34
2019-03-16T02:01:07.067Z,1005.33
2019-03-16T02:06:08.602Z,1005.41
2019-03-16T02:11:07.158Z,1005.61
2019-03-16T02:16:11.132Z,1005.71
2019-03-16T02:21:06.979Z,1005.71
2019-03-16T02:26:06.329Z,1005.77
2019-03-16T02:30:07.925Z,1005.85
2019-03-16T02:35:07.052Z,1005.84
2019-03-16T02:40:06.933Z,1006.04
2019-03-16T02:45:07.414Z,1006.01
2019-03-16T02:50:06.704Z,1006.01
2019-03-16T02:55:06.274Z,1006.08
2019-03-16T03:00:08.356Z,1006.17
2019-03-16T03:05:06.742Z,1006.11
2019-03-16T03:10:06.632Z,1006.28
2019-03-16T03:15:07.570Z,1006.33
2019-03-16T03:19:06.346Z,1006.35
2019-03-16T03:24:06.910Z,1006.4
2019-03-16T03:29:06.292Z,1006.48
2019-03-16T03:34:06.641Z,1006.53
2019-03-16T03:39:06.671Z,1006.55
2019-03-16T03:44:06.208Z,1006.57
2019-03-16T03:49:06.300Z,1006.73
2019-03-16T03:54:06.851Z,1006.73
2019-03-16T03:58:07.719Z,1006.84
2019-03-16T04:03:06.991Z,1006.91
2019-03-16T04:08:06.442Z,1007.08
2019-03-16T04:13:06.154Z,1007.11
2019-03-16T04:18:07.122Z,1007.27
2019-03-16T04:23:06.552Z,1007.38
2019-03-16T04:28:07.014Z,1007.49
2019-03-16T04:33:06.358Z,1007.65
2019-03-16T04:37:06.684Z,1007.7
2019-03-16T04:42:07.511Z,1007.77
2019-03-16T04:47:06.524Z,1007.74
2019-03-16T04:52:07.998Z,1007.79
2019-03-16T04:57:06.496Z,1007.88
2019-03-16T05:02:06.518Z,1007.85
2019-03-16T05:07:06.948Z,1007.87
2019-03-16T05:12:07.012Z,1007.88
2019-03-16T05:17:06.399Z,1007.93
2019-03-16T05:21:07.814Z,1008.01
2019-03-16T05:26:07.350Z,1008.06
2019-03-16T05:31:06.737Z,1008.17
2019-03-16T05:36:06.260Z,1008.19
2019-03-16T05:41:07.085Z,1008.28
2019-03-16T05:46:07.075Z,1008.3
2019-03-16T05:51:06.502Z,1008.33
2019-03-16T05:56:07.008Z,1008.36
2019-03-16T06:01:06.798Z,1008.48
2019-03-16T06:05:10.715Z,1008.55
2019-03-16T06:10:07.174Z,1008.51
2019-03-16T06:15:08.354Z,1008.59
2019-03-16T06:20:06.614Z,1008.66
2019-03-16T06:25:07.050Z,1008.73
2019-03-16T06:30:08.009Z,1008.74
2019-03-16T06:35:06.594Z,1008.83
2019-03-16T06:40:06.450Z,1008.92
2019-03-16T06:44:08.184Z,1008.8
2019-03-16T06:49:07.204Z,1008.88
2019-03-16T06:54:07.815Z,1008.98
2019-03-16T06:59:07.150Z,1008.96
2019-03-16T07:04:06.886Z,1009.02
2019-03-16T07:09:06.740Z,1008.98
2019-03-16T07:14:06.256Z,1009
2019-03-16T07:19:06.434Z,1008.98
2019-03-16T07:24:07.894Z,1009.1
2019-03-16T07:28:06.333Z,1009.13
2019-03-16T07:33:06.805Z,1009.13
2019-03-16T07:38:06.276Z,1009.33
2019-03-16T07:43:06.161Z,1009.36
2019-03-16T07:48:06.587Z,1009.38
2019-03-16T07:53:07.070Z,1009.4
2019-03-16T07:58:06.577Z,1009.32
2019-03-16T08:02:06.995Z,1009.29
2019-03-16T08:07:06.420Z,1009.5
2019-03-16T08:12:06.380Z,1009.54
2019-03-16T08:17:06.895Z,1009.56
2019-03-16T08:22:06.422Z,1009.66
2019-03-16T08:27:08.667Z,1009.69
2019-03-16T08:32:07.808Z,1009.82
2019-03-16T08:37:07.372Z,1009.77
2019-03-16T08:42:07.236Z,1009.75
2019-03-16T08:46:06.482Z,1009.72
2019-03-16T08:51:07.021Z,1009.79
2019-03-16T08:56:06.382Z,1009.72
2019-03-16T09:01:07.991Z,1009.67
2019-03-16T09:06:07.605Z,1009.76
2019-03-16T09:11:07.510Z,1009.95
2019-03-16T09:16:07.378Z,1009.85
2019-03-16T09:21:07.882Z,1009.94
2019-03-16T09:25:06.261Z,1009.92
2019-03-16T09:30:08.049Z,1010.04
2019-03-16T09:35:07.114Z,1009.99
2019-03-16T09:40:06.798Z,1010.2
2019-03-16T09:45:07.406Z,1010.22
2019-03-16T09:50:07.463Z,1010.28
2019-03-16T09:55:07.009Z,1010.41
2019-03-16T10:00:08.130Z,1010.48
2019-03-16T10:04:06.984Z,1010.61
2019-03-16T10:09:07.528Z,1010.59
2019-03-16T10:14:06.403Z,1010.6
2019-03-16T10:19:06.512Z,1010.67
2019-03-16T10:24:07.023Z,1010.62
2019-03-16T10:29:06.455Z,1010.63
2019-03-16T10:34:06.613Z,1010.64
2019-03-16T10:39:07.469Z,1010.6
2019-03-16T10:43:08.021Z,1010.63
2019-03-16T10:48:07.674Z,1010.58
2019-03-16T10:53:07.138Z,1010.66
2019-03-16T10:58:07.644Z,1010.66
2019-03-16T11:03:06.195Z,1010.65
2019-03-16T11:08:06.688Z,1010.58
2019-03-16T11:13:06.589Z,1010.62
2019-03-16T11:17:07.266Z,1010.52
2019-03-16T11:22:07.783Z,1010.47
2019-03-16T11:27:07.348Z,1010.47
2019-03-16T11:32:07.542Z,1010.47
2019-03-16T11:37:07.127Z,1010.35
2019-03-16T11:42:06.829Z,1010.3
2019-03-16T11:47:07.094Z,1010.19
2019-03-16T11:51:07.715Z,1010.09
2019-03-16T11:56:19.279Z,1010.01
2019-03-16T12:01:06.921Z,1009.91
2019-03-16T12:06:06.295Z,1009.86
2019-03-16T12:11:07.210Z,1009.73
2019-03-16T12:16:06.799Z,1009.6
2019-03-16T12:21:06.692Z,1009.44
2019-03-16T12:26:07.158Z,1009.23
2019-03-16T12:31:06.373Z,1009.08
2019-03-16T12:36:06.752Z,1008.97
2019-03-16T12:41:06.932Z,1008.84
2019-03-16T12:45:08.832Z,1008.72
2019-03-16T12:50:08.097Z,1008.56
2019-03-16T12:55:07.757Z,1008.39
2019-03-16T13:00:08.370Z,1008.24
2019-03-16T13:05:06.708Z,1008.14
2019-03-16T13:10:06.694Z,1008.03
2019-03-16T13:15:07.710Z,1007.99
2019-03-16T13:20:06.580Z,1007.89
2019-03-16T13:24:07.292Z,1007.82
2019-03-16T13:29:07.798Z,1007.79
2019-03-16T13:34:07.152Z,1007.83
2019-03-16T13:39:07.724Z,1007.7
2019-03-16T13:44:07.524Z,1007.55
2019-03-16T13:49:07.958Z,1007.41
2019-03-16T13:54:07.532Z,1007.43
2019-03-16T13:58:07.044Z,1007.34
2019-03-16T14:03:07.741Z,1007.14
2019-03-16T14:08:08.038Z,1007.14
2019-03-16T14:13:07.290Z,1007.13
2019-03-16T14:18:06.251Z,1007
2019-03-16T14:23:06.673Z,1006.9
2019-03-16T14:28:06.740Z,1006.87
2019-03-16T14:33:06.657Z,1006.8
2019-03-16T14:37:08.139Z,1006.75
2019-03-16T14:42:07.936Z,1006.72
2019-03-16T14:47:06.968Z,1006.64
2019-03-16T14:52:07.114Z,1006.61
2019-03-16T14:57:06.594Z,1006.64
2019-03-16T15:02:06.368Z,1006.5
2019-03-16T15:07:06.888Z,1006.46
2019-03-16T15:11:06.572Z,1006.41
2019-03-16T15:16:07.822Z,1006.35
2019-03-16T15:21:06.417Z,1006.31
2019-03-16T15:26:06.891Z,1006.21
2019-03-16T15:31:06.891Z,1006.16
2019-03-16T15:36:06.420Z,1006.17
2019-03-16T15:41:07.094Z,1006.14
2019-03-16T15:45:09.041Z,1006.15
2019-03-16T15:50:06.705Z,1006.06
2019-03-16T15:55:07.252Z,1005.93
2019-03-16T16:00:08.943Z,1005.83
2019-03-16T16:05:06.238Z,1005.79
2019-03-16T16:10:07.115Z,1005.71
2019-03-16T16:15:07.660Z,1005.74
2019-03-16T16:20:06.955Z,1005.74
2019-03-16T16:24:07.208Z,1005.68
2019-03-16T16:29:06.793Z,1005.62
2019-03-16T16:34:08.054Z,1005.61
2019-03-16T16:39:06.891Z,1005.55
2019-03-16T16:44:07.310Z,1005.59
2019-03-16T16:49:07.040Z,1005.72
2019-03-16T16:54:07.476Z,1005.65
2019-03-16T16:59:07.146Z,1005.79
2019-03-16T17:03:07.890Z,1005.68
2019-03-16T17:08:06.441Z,1005.59
2019-03-16T17:13:06.379Z,1005.59
2019-03-16T17:18:06.428Z,1005.63
2019-03-16T17:23:07.810Z,1005.64
2019-03-16T17:28:06.316Z,1005.7
2019-03-16T17:33:06.581Z,1005.63
2019-03-16T17:37:08.064Z,1005.55
2019-03-16T17:42:07.846Z,1005.68
2019-03-16T17:47:06.814Z,1005.69
2019-03-16T17:52:08.028Z,1005.67
2019-03-16T17:57:07.055Z,1005.66
2019-03-16T18:02:06.530Z,1005.72
2019-03-16T18:07:06.965Z,1005.73
2019-03-16T18:11:07.783Z,1005.79
2019-03-16T18:16:07.889Z,1005.79
2019-03-16T18:21:07.390Z,1005.76
2019-03-16T18:26:07.879Z,1005.68
2019-03-16T18:31:06.188Z,1005.68
2019-03-16T18:36:06.607Z,1005.72
2019-03-16T18:41:06.568Z,1005.68
2019-03-16T18:46:06.722Z,1005.73
2019-03-16T18:51:06.221Z,1005.64
2019-03-16T18:55:07.615Z,1005.6
2019-03-16T19:00:09.188Z,1005.71
2019-03-16T19:05:06.532Z,1005.62
2019-03-16T19:10:06.726Z,1005.59
2019-03-16T19:15:07.279Z,1005.45
2019-03-16T19:20:06.907Z,1005.54
2019-03-16T19:25:06.444Z,1005.55
2019-03-16T19:30:08.024Z,1005.56
2019-03-16T19:35:06.597Z,1005.63
2019-03-16T19:39:07.491Z,1005.71
2019-03-16T19:44:08.116Z,1005.54
2019-03-16T19:49:08.220Z,1005.62
2019-03-16T19:54:07.729Z,1005.68
2019-03-16T19:59:07.312Z,1005.6
2019-03-16T20:04:06.960Z,1005.53
2019-03-16T20:09:07.769Z,1005.51
2019-03-16T20:14:07.338Z,1005.45
2019-03-16T20:18:06.719Z,1005.4
2019-03-16T20:19:07.803Z,1005.4
2019-03-16T20:23:06.215Z,1005.36
2019-03-16T20:28:06.673Z,1005.49
2019-03-16T20:33:06.668Z,1005.47
2019-03-16T20:38:06.253Z,1005.44
2019-03-16T20:43:06.201Z,1005.47
2019-03-16T20:48:07.010Z,1005.52
2019-03-16T20:53:06.564Z,1005.47
2019-03-16T20:58:07.144Z,1005.43
2019-03-16T21:03:15.741Z,1005.42
2019-03-16T21:07:06.750Z,1005.41
2019-03-16T21:12:06.656Z,1005.48
2019-03-16T21:17:06.450Z,1005.5
2019-03-16T21:22:06.970Z,1005.45
2019-03-16T21:27:06.439Z,1005.52
2019-03-16T21:32:06.548Z,1005.35
2019-03-16T21:36:07.955Z,1005.4
2019-03-16T21:37:06.149Z,1005.4
2019-03-16T21:41:07.933Z,1005.43
2019-03-16T21:46:06.931Z,1005.46
2019-03-16T21:51:06.615Z,1005.52
2019-03-16T21:56:06.230Z,1005.45
2019-03-16T22:01:08.047Z,1005.49
2019-03-16T22:06:06.514Z,1005.55
2019-03-16T22:11:07.216Z,1005.5
2019-03-16T22:16:06.475Z,1005.47
2019-03-16T22:21:07.026Z,1005.53
2019-03-16T22:25:07.356Z,1005.4
2019-03-16T22:30:09.529Z,1005.33
2019-03-16T22:35:09.917Z,1005.35
2019-03-16T22:40:07.156Z,1005.35
2019-03-16T22:45:07.875Z,1005.25
2019-03-16T22:50:06.933Z,1005.31
2019-03-16T22:55:07.364Z,1005.28
2019-03-16T23:00:09.260Z,1005.15
2019-03-16T23:05:06.241Z,1005.22
2019-03-16T23:10:06.552Z,1005.18
2019-03-16T23:14:06.971Z,1005.08
2019-03-16T23:19:07.037Z,1005.21
2019-03-16T23:24:06.581Z,1005.23
2019-03-16T23:29:07.395Z,1005.17
2019-03-16T23:34:18.234Z,1005.1
2019-03-16T23:39:07.081Z,1005.16
2019-03-16T23:44:06.593Z,1005.19
2019-03-16T23:49:06.995Z,1005.04
2019-03-16T23:54:06.532Z,1004.99
2019-03-16T23:58:07.137Z,1004.97
2019-03-16T23:59:06.336Z,1004.97
